sensor_id;sensor_type;location;lat;lon;timestamp;P1;durP1;ratioP1;P2;durP2;ratioP2
317;SDS011;146;53.448;10.228;2022-09-21T00:00:51;3.40;;;3.20;;
317;SDS011;146;53.448;10.228;2022-09-21T00:03:20;3.47;;;3.17;;
317;SDS011;146;53.448;10.228;2022-09-21T00:05:46;4.07;;;3.67;;
317;SDS011;146;53.448;10.228;2022-09-21T00:08:13;2.97;;;2.77;;
317;SDS011;146;53.448;10.228;2022-09-21T00:10:40;5.30;;;3.20;;
317;SDS011;146;53.448;10.228;2022-09-21T00:13:10;3.57;;;2.87;;
317;SDS011;146;53.448;10.228;2022-09-21T00:15:38;2.80;;;2.60;;
317;SDS011;146;53.448;10.228;2022-09-21T00:18:04;3.70;;;2.80;;
317;SDS011;146;53.448;10.228;2022-09-21T00:20:32;4.00;;;3.00;;
317;SDS011;146;53.448;10.228;2022-09-21T00:22:59;3.17;;;2.57;;
317;SDS011;146;53.448;10.228;2022-09-21T00:25:26;3.27;;;3.07;;
317;SDS011;146;53.448;10.228;2022-09-21T00:27:52;2.77;;;2.57;;
317;SDS011;146;53.448;10.228;2022-09-21T00:30:19;5.40;;;3.50;;
317;SDS011;146;53.448;10.228;2022-09-21T00:32:46;4.00;;;3.63;;
317;SDS011;146;53.448;10.228;2022-09-21T00:35:13;2.67;;;2.50;;
317;SDS011;146;53.448;10.228;2022-09-21T00:37:41;3.57;;;2.53;;
317;SDS011;146;53.448;10.228;2022-09-21T00:40:08;3.63;;;3.10;;
317;SDS011;146;53.448;10.228;2022-09-21T00:42:35;6.77;;;3.40;;
317;SDS011;146;53.448;10.228;2022-09-21T00:45:02;3.50;;;3.03;;
317;SDS011;146;53.448;10.228;2022-09-21T00:47:32;5.03;;;2.70;;
317;SDS011;146;53.448;10.228;2022-09-21T00:50:01;3.50;;;3.20;;
317;SDS011;146;53.448;10.228;2022-09-21T00:52:31;3.47;;;3.17;;
317;SDS011;146;53.448;10.228;2022-09-21T00:55:04;3.10;;;2.90;;
317;SDS011;146;53.448;10.228;2022-09-21T00:57:36;3.43;;;3.03;;
317;SDS011;146;53.448;10.228;2022-09-21T01:00:05;2.70;;;2.50;;
317;SDS011;146;53.448;10.228;2022-09-21T01:02:34;3.00;;;2.80;;
317;SDS011;146;53.448;10.228;2022-09-21T01:05:02;4.87;;;3.23;;
317;SDS011;146;53.448;10.228;2022-09-21T01:07:30;3.90;;;3.17;;
317;SDS011;146;53.448;10.228;2022-09-21T01:10:02;3.47;;;3.17;;
317;SDS011;146;53.448;10.228;2022-09-21T01:12:37;3.50;;;3.20;;
317;SDS011;146;53.448;10.228;2022-09-21T01:15:25;3.27;;;3.07;;
317;SDS011;146;53.448;10.228;2022-09-21T01:18:03;4.57;;;3.50;;
317;SDS011;146;53.448;10.228;2022-09-21T01:20:46;6.00;;;3.43;;
317;SDS011;146;53.448;10.228;2022-09-21T01:23:41;4.10;;;3.70;;
317;SDS011;146;53.448;10.228;2022-09-21T01:26:31;3.73;;;3.27;;
317;SDS011;146;53.448;10.228;2022-09-21T01:29:17;3.33;;;3.13;;
317;SDS011;146;53.448;10.228;2022-09-21T01:31:48;3.90;;;3.50;;
317;SDS011;146;53.448;10.228;2022-09-21T01:34:20;3.73;;;3.00;;
317;SDS011;146;53.448;10.228;2022-09-21T01:36:51;4.10;;;2.83;;
317;SDS011;146;53.448;10.228;2022-09-21T01:39:20;3.43;;;3.23;;
317;SDS011;146;53.448;10.228;2022-09-21T01:41:48;3.13;;;2.83;;
317;SDS011;146;53.448;10.228;2022-09-21T01:44:19;4.10;;;3.00;;
317;SDS011;146;53.448;10.228;2022-09-21T01:46:48;3.40;;;3.10;;
317;SDS011;146;53.448;10.228;2022-09-21T01:49:18;3.07;;;2.77;;
317;SDS011;146;53.448;10.228;2022-09-21T01:51:50;3.37;;;3.17;;
317;SDS011;146;53.448;10.228;2022-09-21T01:54:23;3.33;;;2.80;;
317;SDS011;146;53.448;10.228;2022-09-21T01:56:54;3.60;;;3.30;;
317;SDS011;146;53.448;10.228;2022-09-21T01:59:29;3.23;;;2.97;;
317;SDS011;146;53.448;10.228;2022-09-21T02:02:02;2.73;;;2.53;;
317;SDS011;146;53.448;10.228;2022-09-21T02:04:42;3.83;;;2.77;;
317;SDS011;146;53.448;10.228;2022-09-21T02:07:09;3.10;;;2.80;;
317;SDS011;146;53.448;10.228;2022-09-21T02:09:36;3.20;;;2.90;;
317;SDS011;146;53.448;10.228;2022-09-21T02:12:04;4.40;;;3.70;;
317;SDS011;146;53.448;10.228;2022-09-21T02:14:32;7.60;;;4.77;;
317;SDS011;146;53.448;10.228;2022-09-21T02:17:04;4.90;;;4.20;;
317;SDS011;146;53.448;10.228;2022-09-21T02:19:42;5.23;;;3.90;;
317;SDS011;146;53.448;10.228;2022-09-21T02:22:14;4.03;;;3.63;;
317;SDS011;146;53.448;10.228;2022-09-21T02:24:47;5.47;;;4.40;;
317;SDS011;146;53.448;10.228;2022-09-21T02:27:19;4.20;;;3.77;;
317;SDS011;146;53.448;10.228;2022-09-21T02:29:52;3.80;;;3.50;;
317;SDS011;146;53.448;10.228;2022-09-21T02:32:27;3.50;;;3.20;;
317;SDS011;146;53.448;10.228;2022-09-21T02:35:00;3.70;;;3.30;;
317;SDS011;146;53.448;10.228;2022-09-21T02:37:34;4.07;;;3.27;;
317;SDS011;146;53.448;10.228;2022-09-21T02:40:06;3.90;;;3.53;;
317;SDS011;146;53.448;10.228;2022-09-21T02:42:47;3.93;;;3.57;;
317;SDS011;146;53.448;10.228;2022-09-21T02:45:19;4.20;;;3.70;;
317;SDS011;146;53.448;10.228;2022-09-21T02:47:50;4.33;;;3.93;;
317;SDS011;146;53.448;10.228;2022-09-21T02:50:21;3.00;;;2.80;;
317;SDS011;146;53.448;10.228;2022-09-21T02:52:51;3.83;;;3.07;;
317;SDS011;146;53.448;10.228;2022-09-21T02:55:20;4.20;;;3.80;;
317;SDS011;146;53.448;10.228;2022-09-21T02:57:47;4.20;;;2.90;;
317;SDS011;146;53.448;10.228;2022-09-21T03:00:17;4.30;;;3.90;;
317;SDS011;146;53.448;10.228;2022-09-21T03:02:46;3.40;;;3.20;;
317;SDS011;146;53.448;10.228;2022-09-21T03:05:13;2.80;;;2.60;;
317;SDS011;146;53.448;10.228;2022-09-21T03:07:40;3.77;;;3.10;;
317;SDS011;146;53.448;10.228;2022-09-21T03:10:07;3.13;;;2.93;;
317;SDS011;146;53.448;10.228;2022-09-21T03:12:34;3.67;;;3.37;;
317;SDS011;146;53.448;10.228;2022-09-21T03:15:01;5.03;;;3.40;;
317;SDS011;146;53.448;10.228;2022-09-21T03:17:30;3.23;;;2.93;;
317;SDS011;146;53.448;10.228;2022-09-21T03:19:56;3.97;;;3.60;;
317;SDS011;146;53.448;10.228;2022-09-21T03:22:23;3.73;;;3.30;;
317;SDS011;146;53.448;10.228;2022-09-21T03:24:50;4.83;;;3.60;;
317;SDS011;146;53.448;10.228;2022-09-21T03:27:17;5.33;;;3.63;;
317;SDS011;146;53.448;10.228;2022-09-21T03:29:47;3.27;;;2.97;;
317;SDS011;146;53.448;10.228;2022-09-21T03:32:13;4.17;;;3.57;;
317;SDS011;146;53.448;10.228;2022-09-21T03:34:43;4.10;;;3.70;;
317;SDS011;146;53.448;10.228;2022-09-21T03:37:10;4.47;;;3.30;;
317;SDS011;146;53.448;10.228;2022-09-21T03:39:36;3.87;;;3.00;;
317;SDS011;146;53.448;10.228;2022-09-21T03:42:03;3.93;;;3.63;;
317;SDS011;146;53.448;10.228;2022-09-21T03:44:30;6.67;;;3.27;;
317;SDS011;146;53.448;10.228;2022-09-21T03:46:56;5.10;;;2.90;;
317;SDS011;146;53.448;10.228;2022-09-21T03:49:23;4.10;;;3.40;;
317;SDS011;146;53.448;10.228;2022-09-21T03:51:52;5.80;;;3.60;;
317;SDS011;146;53.448;10.228;2022-09-21T03:54:20;3.10;;;2.60;;
317;SDS011;146;53.448;10.228;2022-09-21T03:56:46;3.83;;;2.90;;
317;SDS011;146;53.448;10.228;2022-09-21T03:59:13;3.53;;;3.23;;
317;SDS011;146;53.448;10.228;2022-09-21T04:01:42;4.83;;;2.80;;
317;SDS011;146;53.448;10.228;2022-09-21T04:04:09;4.17;;;3.40;;
317;SDS011;146;53.448;10.228;2022-09-21T04:06:35;3.27;;;2.83;;
317;SDS011;146;53.448;10.228;2022-09-21T04:09:04;3.87;;;3.47;;
317;SDS011;146;53.448;10.228;2022-09-21T04:11:33;3.30;;;3.10;;
317;SDS011;146;53.448;10.228;2022-09-21T04:14:00;3.40;;;2.90;;
317;SDS011;146;53.448;10.228;2022-09-21T04:16:26;3.17;;;2.87;;
317;SDS011;146;53.448;10.228;2022-09-21T04:18:53;5.03;;;2.83;;
317;SDS011;146;53.448;10.228;2022-09-21T04:21:20;2.90;;;2.70;;
317;SDS011;146;53.448;10.228;2022-09-21T04:23:47;3.73;;;3.40;;
317;SDS011;146;53.448;10.228;2022-09-21T04:26:20;3.07;;;2.63;;
317;SDS011;146;53.448;10.228;2022-09-21T04:28:49;4.10;;;2.80;;
317;SDS011;146;53.448;10.228;2022-09-21T04:31:16;2.50;;;2.33;;
317;SDS011;146;53.448;10.228;2022-09-21T04:33:43;3.27;;;2.97;;
317;SDS011;146;53.448;10.228;2022-09-21T04:36:09;2.73;;;2.53;;
317;SDS011;146;53.448;10.228;2022-09-21T04:38:36;2.77;;;2.57;;
317;SDS011;146;53.448;10.228;2022-09-21T04:41:04;2.50;;;2.30;;
317;SDS011;146;53.448;10.228;2022-09-21T04:43:35;2.40;;;2.20;;
317;SDS011;146;53.448;10.228;2022-09-21T04:46:05;3.77;;;2.40;;
317;SDS011;146;53.448;10.228;2022-09-21T04:48:32;3.53;;;3.23;;
317;SDS011;146;53.448;10.228;2022-09-21T04:50:59;1.70;;;1.60;;
317;SDS011;146;53.448;10.228;2022-09-21T04:53:26;3.20;;;2.10;;
317;SDS011;146;53.448;10.228;2022-09-21T04:55:53;2.20;;;2.10;;
317;SDS011;146;53.448;10.228;2022-09-21T04:58:20;3.03;;;2.40;;
317;SDS011;146;53.448;10.228;2022-09-21T05:00:49;3.20;;;2.23;;
317;SDS011;146;53.448;10.228;2022-09-21T05:03:16;3.30;;;3.00;;
317;SDS011;146;53.448;10.228;2022-09-21T05:05:45;2.87;;;2.60;;
317;SDS011;146;53.448;10.228;2022-09-21T05:08:12;2.90;;;2.57;;
317;SDS011;146;53.448;10.228;2022-09-21T05:10:39;2.97;;;2.67;;
317;SDS011;146;53.448;10.228;2022-09-21T05:13:05;3.37;;;2.90;;
317;SDS011;146;53.448;10.228;2022-09-21T05:15:35;5.90;;;3.50;;
317;SDS011;146;53.448;10.228;2022-09-21T05:18:06;3.50;;;3.20;;
317;SDS011;146;53.448;10.228;2022-09-21T05:20:33;5.23;;;3.47;;
317;SDS011;146;53.448;10.228;2022-09-21T05:22:59;7.03;;;3.70;;
317;SDS011;146;53.448;10.228;2022-09-21T05:25:27;4.00;;;3.60;;
317;SDS011;146;53.448;10.228;2022-09-21T05:27:55;5.40;;;3.90;;
317;SDS011;146;53.448;10.228;2022-09-21T05:30:22;6.33;;;3.80;;
317;SDS011;146;53.448;10.228;2022-09-21T05:32:53;4.57;;;3.87;;
317;SDS011;146;53.448;10.228;2022-09-21T05:35:28;5.60;;;3.33;;
317;SDS011;146;53.448;10.228;2022-09-21T05:38:02;6.80;;;4.50;;
317;SDS011;146;53.448;10.228;2022-09-21T05:40:35;9.50;;;4.43;;
317;SDS011;146;53.448;10.228;2022-09-21T05:43:02;9.70;;;4.83;;
317;SDS011;146;53.448;10.228;2022-09-21T05:45:29;8.60;;;4.37;;
317;SDS011;146;53.448;10.228;2022-09-21T05:47:59;9.50;;;4.37;;
317;SDS011;146;53.448;10.228;2022-09-21T05:50:42;10.03;;;4.43;;
317;SDS011;146;53.448;10.228;2022-09-21T05:56:20;16.43;;;4.87;;
317;SDS011;146;53.448;10.228;2022-09-21T05:58:58;5.53;;;4.33;;
317;SDS011;146;53.448;10.228;2022-09-21T06:01:38;5.77;;;3.90;;
317;SDS011;146;53.448;10.228;2022-09-21T06:04:11;5.97;;;3.50;;
317;SDS011;146;53.448;10.228;2022-09-21T06:06:39;6.13;;;3.97;;
317;SDS011;146;53.448;10.228;2022-09-21T06:09:06;5.37;;;4.87;;
317;SDS011;146;53.448;10.228;2022-09-21T06:11:33;7.07;;;5.80;;
317;SDS011;146;53.448;10.228;2022-09-21T06:14:00;7.10;;;5.50;;
317;SDS011;146;53.448;10.228;2022-09-21T06:16:34;6.57;;;5.60;;
317;SDS011;146;53.448;10.228;2022-09-21T06:19:02;6.50;;;5.90;;
317;SDS011;146;53.448;10.228;2022-09-21T06:21:29;7.57;;;6.70;;
317;SDS011;146;53.448;10.228;2022-09-21T06:23:57;9.33;;;7.37;;
317;SDS011;146;53.448;10.228;2022-09-21T06:26:23;11.20;;;7.57;;
317;SDS011;146;53.448;10.228;2022-09-21T06:28:52;7.80;;;7.10;;
317;SDS011;146;53.448;10.228;2022-09-21T06:31:18;6.20;;;5.70;;
317;SDS011;146;53.448;10.228;2022-09-21T06:33:45;6.90;;;6.30;;
317;SDS011;146;53.448;10.228;2022-09-21T06:36:12;7.13;;;5.70;;
317;SDS011;146;53.448;10.228;2022-09-21T06:41:32;5.87;;;5.47;;
317;SDS011;146;53.448;10.228;2022-09-21T06:43:59;6.30;;;5.70;;
317;SDS011;146;53.448;10.228;2022-09-21T06:46:25;9.53;;;5.83;;
317;SDS011;146;53.448;10.228;2022-09-21T06:48:52;6.43;;;5.83;;
317;SDS011;146;53.448;10.228;2022-09-21T06:51:19;7.00;;;5.30;;
317;SDS011;146;53.448;10.228;2022-09-21T06:53:46;6.30;;;5.40;;
317;SDS011;146;53.448;10.228;2022-09-21T06:56:14;5.47;;;5.00;;
317;SDS011;146;53.448;10.228;2022-09-21T06:58:41;7.00;;;5.17;;
317;SDS011;146;53.448;10.228;2022-09-21T07:01:08;7.07;;;4.53;;
317;SDS011;146;53.448;10.228;2022-09-21T07:03:36;8.40;;;4.70;;
317;SDS011;146;53.448;10.228;2022-09-21T07:06:04;5.80;;;5.20;;
317;SDS011;146;53.448;10.228;2022-09-21T07:08:31;6.30;;;5.70;;
317;SDS011;146;53.448;10.228;2022-09-21T07:11:00;7.10;;;4.83;;
317;SDS011;146;53.448;10.228;2022-09-21T07:13:28;6.97;;;5.17;;
317;SDS011;146;53.448;10.228;2022-09-21T07:15:55;5.57;;;4.80;;
317;SDS011;146;53.448;10.228;2022-09-21T07:18:22;6.20;;;4.70;;
317;SDS011;146;53.448;10.228;2022-09-21T07:20:49;5.10;;;4.60;;
317;SDS011;146;53.448;10.228;2022-09-21T07:23:16;8.27;;;5.27;;
317;SDS011;146;53.448;10.228;2022-09-21T07:25:45;5.53;;;4.93;;
317;SDS011;146;53.448;10.228;2022-09-21T07:28:13;5.17;;;4.70;;
317;SDS011;146;53.448;10.228;2022-09-21T07:30:41;6.13;;;5.63;;
317;SDS011;146;53.448;10.228;2022-09-21T07:33:08;7.00;;;6.13;;
317;SDS011;146;53.448;10.228;2022-09-21T07:35:35;7.70;;;7.00;;
317;SDS011;146;53.448;10.228;2022-09-21T07:38:03;9.90;;;8.10;;
317;SDS011;146;53.448;10.228;2022-09-21T07:40:31;8.57;;;7.77;;
317;SDS011;146;53.448;10.228;2022-09-21T07:42:58;8.67;;;7.87;;
317;SDS011;146;53.448;10.228;2022-09-21T07:45:26;10.43;;;8.10;;
317;SDS011;146;53.448;10.228;2022-09-21T07:47:54;11.70;;;9.30;;
317;SDS011;146;53.448;10.228;2022-09-21T07:50:22;10.80;;;9.03;;
317;SDS011;146;53.448;10.228;2022-09-21T07:52:48;13.23;;;8.10;;
317;SDS011;146;53.448;10.228;2022-09-21T07:55:15;9.63;;;8.63;;
317;SDS011;146;53.448;10.228;2022-09-21T07:57:48;8.93;;;8.13;;
317;SDS011;146;53.448;10.228;2022-09-21T08:00:32;8.00;;;7.27;;
317;SDS011;146;53.448;10.228;2022-09-21T08:03:02;8.60;;;7.70;;
317;SDS011;146;53.448;10.228;2022-09-21T08:05:30;8.40;;;7.67;;
317;SDS011;146;53.448;10.228;2022-09-21T08:08:00;8.70;;;7.80;;
317;SDS011;146;53.448;10.228;2022-09-21T08:10:28;6.60;;;5.93;;
317;SDS011;146;53.448;10.228;2022-09-21T08:12:56;8.30;;;7.50;;
317;SDS011;146;53.448;10.228;2022-09-21T08:15:22;7.83;;;7.03;;
317;SDS011;146;53.448;10.228;2022-09-21T08:17:52;8.80;;;7.60;;
317;SDS011;146;53.448;10.228;2022-09-21T08:20:20;7.60;;;6.13;;
317;SDS011;146;53.448;10.228;2022-09-21T08:22:47;7.10;;;6.47;;
317;SDS011;146;53.448;10.228;2022-09-21T08:25:14;7.87;;;7.17;;
317;SDS011;146;53.448;10.228;2022-09-21T08:27:41;6.30;;;5.70;;
317;SDS011;146;53.448;10.228;2022-09-21T08:30:08;6.03;;;5.53;;
317;SDS011;146;53.448;10.228;2022-09-21T08:32:38;8.27;;;6.03;;
317;SDS011;146;53.448;10.228;2022-09-21T08:35:05;14.20;;;7.23;;
317;SDS011;146;53.448;10.228;2022-09-21T08:37:34;6.70;;;6.10;;
317;SDS011;146;53.448;10.228;2022-09-21T08:40:03;6.03;;;5.10;;
317;SDS011;146;53.448;10.228;2022-09-21T08:42:38;6.50;;;5.87;;
317;SDS011;146;53.448;10.228;2022-09-21T08:45:10;6.00;;;5.40;;
317;SDS011;146;53.448;10.228;2022-09-21T08:47:41;5.77;;;5.17;;
317;SDS011;146;53.448;10.228;2022-09-21T08:52:59;5.97;;;5.37;;
317;SDS011;146;53.448;10.228;2022-09-21T08:55:30;5.43;;;4.93;;
317;SDS011;146;53.448;10.228;2022-09-21T08:57:57;5.07;;;4.37;;
317;SDS011;146;53.448;10.228;2022-09-21T09:00:24;5.80;;;5.30;;
317;SDS011;146;53.448;10.228;2022-09-21T09:05:43;4.60;;;4.10;;
317;SDS011;146;53.448;10.228;2022-09-21T09:11:18;3.73;;;2.83;;
317;SDS011;146;53.448;10.228;2022-09-21T09:13:58;4.90;;;3.70;;
317;SDS011;146;53.448;10.228;2022-09-21T09:16:52;4.00;;;3.27;;
317;SDS011;146;53.448;10.228;2022-09-21T09:19:32;2.90;;;2.70;;
317;SDS011;146;53.448;10.228;2022-09-21T09:22:05;2.60;;;2.00;;
317;SDS011;146;53.448;10.228;2022-09-21T09:24:40;2.87;;;2.43;;
317;SDS011;146;53.448;10.228;2022-09-21T09:27:11;3.13;;;2.27;;
317;SDS011;146;53.448;10.228;2022-09-21T09:29:44;2.50;;;2.30;;
317;SDS011;146;53.448;10.228;2022-09-21T09:32:15;2.33;;;2.17;;
317;SDS011;146;53.448;10.228;2022-09-21T09:34:43;3.07;;;1.90;;
317;SDS011;146;53.448;10.228;2022-09-21T09:37:17;2.07;;;1.60;;
317;SDS011;146;53.448;10.228;2022-09-21T09:39:52;1.93;;;1.83;;
317;SDS011;146;53.448;10.228;2022-09-21T09:42:23;2.17;;;1.97;;
317;SDS011;146;53.448;10.228;2022-09-21T09:45:08;1.87;;;1.70;;
317;SDS011;146;53.448;10.228;2022-09-21T09:48:16;3.00;;;2.30;;
317;SDS011;146;53.448;10.228;2022-09-21T09:50:53;3.23;;;2.10;;
317;SDS011;146;53.448;10.228;2022-09-21T09:53:21;1.83;;;1.73;;
317;SDS011;146;53.448;10.228;2022-09-21T09:55:51;3.23;;;1.90;;
317;SDS011;146;53.448;10.228;2022-09-21T09:58:20;1.87;;;1.77;;
317;SDS011;146;53.448;10.228;2022-09-21T10:00:50;1.83;;;1.73;;
317;SDS011;146;53.448;10.228;2022-09-21T10:03:19;1.60;;;1.50;;
317;SDS011;146;53.448;10.228;2022-09-21T10:05:47;1.20;;;1.10;;
317;SDS011;146;53.448;10.228;2022-09-21T10:11:09;2.40;;;1.13;;
317;SDS011;146;53.448;10.228;2022-09-21T10:13:38;1.20;;;1.10;;
317;SDS011;146;53.448;10.228;2022-09-21T10:16:05;4.77;;;1.20;;
317;SDS011;146;53.448;10.228;2022-09-21T10:18:38;1.50;;;1.40;;
317;SDS011;146;53.448;10.228;2022-09-21T10:21:14;2.23;;;1.43;;
317;SDS011;146;53.448;10.228;2022-09-21T10:23:44;1.20;;;1.13;;
317;SDS011;146;53.448;10.228;2022-09-21T10:26:14;2.03;;;1.83;;
317;SDS011;146;53.448;10.228;2022-09-21T10:28:53;4.17;;;1.60;;
317;SDS011;146;53.448;10.228;2022-09-21T10:31:22;1.73;;;1.63;;
317;SDS011;146;53.448;10.228;2022-09-21T10:33:52;1.60;;;1.50;;
317;SDS011;146;53.448;10.228;2022-09-21T10:36:30;2.10;;;1.40;;
317;SDS011;146;53.448;10.228;2022-09-21T10:45:34;1.13;;;1.03;;
317;SDS011;146;53.448;10.228;2022-09-21T10:48:06;2.47;;;1.70;;
317;SDS011;146;53.448;10.228;2022-09-21T10:50:35;1.60;;;1.50;;
317;SDS011;146;53.448;10.228;2022-09-21T10:53:10;1.70;;;1.20;;
317;SDS011;146;53.448;10.228;2022-09-21T10:55:40;1.20;;;1.10;;
317;SDS011;146;53.448;10.228;2022-09-21T10:58:10;1.10;;;1.00;;
317;SDS011;146;53.448;10.228;2022-09-21T11:00:41;1.10;;;1.00;;
317;SDS011;146;53.448;10.228;2022-09-21T11:03:31;0.90;;;0.90;;
317;SDS011;146;53.448;10.228;2022-09-21T11:06:07;0.90;;;0.80;;
317;SDS011;146;53.448;10.228;2022-09-21T11:08:40;0.90;;;0.90;;
317;SDS011;146;53.448;10.228;2022-09-21T11:11:19;1.63;;;1.03;;
317;SDS011;146;53.448;10.228;2022-09-21T11:13:58;1.53;;;1.40;;
317;SDS011;146;53.448;10.228;2022-09-21T11:16:32;1.23;;;1.13;;
317;SDS011;146;53.448;10.228;2022-09-21T11:19:06;1.30;;;1.20;;
317;SDS011;146;53.448;10.228;2022-09-21T11:21:43;1.70;;;1.10;;
317;SDS011;146;53.448;10.228;2022-09-21T11:24:19;1.07;;;0.97;;
317;SDS011;146;53.448;10.228;2022-09-21T11:26:52;0.97;;;0.90;;
317;SDS011;146;53.448;10.228;2022-09-21T11:29:25;3.40;;;1.23;;
317;SDS011;146;53.448;10.228;2022-09-21T11:35:00;1.20;;;1.10;;
317;SDS011;146;53.448;10.228;2022-09-21T11:37:52;4.50;;;1.80;;
317;SDS011;146;53.448;10.228;2022-09-21T11:40:31;1.77;;;1.57;;
317;SDS011;146;53.448;10.228;2022-09-21T11:43:21;1.67;;;1.23;;
317;SDS011;146;53.448;10.228;2022-09-21T11:45:57;1.40;;;1.23;;
317;SDS011;146;53.448;10.228;2022-09-21T11:48:43;1.50;;;1.40;;
317;SDS011;146;53.448;10.228;2022-09-21T11:51:34;1.53;;;1.30;;
317;SDS011;146;53.448;10.228;2022-09-21T11:54:26;3.40;;;1.60;;
317;SDS011;146;53.448;10.228;2022-09-21T11:57:05;1.90;;;1.80;;
317;SDS011;146;53.448;10.228;2022-09-21T11:59:43;1.50;;;1.40;;
317;SDS011;146;53.448;10.228;2022-09-21T12:02:23;1.90;;;1.27;;
317;SDS011;146;53.448;10.228;2022-09-21T12:05:05;1.30;;;1.20;;
317;SDS011;146;53.448;10.228;2022-09-21T12:07:47;1.40;;;1.27;;
317;SDS011;146;53.448;10.228;2022-09-21T12:10:41;1.70;;;1.60;;
317;SDS011;146;53.448;10.228;2022-09-21T12:13:16;3.43;;;2.40;;
317;SDS011;146;53.448;10.228;2022-09-21T12:15:52;2.20;;;1.60;;
317;SDS011;146;53.448;10.228;2022-09-21T12:18:28;1.80;;;1.67;;
317;SDS011;146;53.448;10.228;2022-09-21T12:21:08;2.20;;;2.00;;
317;SDS011;146;53.448;10.228;2022-09-21T12:23:40;2.20;;;1.70;;
317;SDS011;146;53.448;10.228;2022-09-21T12:26:09;2.07;;;1.90;;
317;SDS011;146;53.448;10.228;2022-09-21T12:28:41;1.33;;;1.23;;
317;SDS011;146;53.448;10.228;2022-09-21T12:31:13;2.10;;;1.53;;
317;SDS011;146;53.448;10.228;2022-09-21T12:33:47;1.50;;;1.40;;
317;SDS011;146;53.448;10.228;2022-09-21T12:36:18;1.30;;;1.20;;
317;SDS011;146;53.448;10.228;2022-09-21T12:38:49;1.30;;;1.20;;
317;SDS011;146;53.448;10.228;2022-09-21T12:41:22;2.80;;;1.40;;
317;SDS011;146;53.448;10.228;2022-09-21T12:43:56;1.20;;;1.10;;
317;SDS011;146;53.448;10.228;2022-09-21T12:46:30;1.33;;;1.23;;
317;SDS011;146;53.448;10.228;2022-09-21T12:49:08;3.83;;;1.63;;
317;SDS011;146;53.448;10.228;2022-09-21T12:51:40;3.37;;;1.80;;
317;SDS011;146;53.448;10.228;2022-09-21T12:54:11;1.57;;;1.23;;
317;SDS011;146;53.448;10.228;2022-09-21T12:56:50;1.10;;;1.07;;
317;SDS011;146;53.448;10.228;2022-09-21T12:59:24;1.57;;;1.20;;
317;SDS011;146;53.448;10.228;2022-09-21T13:02:02;1.60;;;1.20;;
317;SDS011;146;53.448;10.228;2022-09-21T13:04:56;1.20;;;1.10;;
317;SDS011;146;53.448;10.228;2022-09-21T13:07:35;1.10;;;1.10;;
317;SDS011;146;53.448;10.228;2022-09-21T13:10:33;1.40;;;1.30;;
317;SDS011;146;53.448;10.228;2022-09-21T13:13:15;3.27;;;2.97;;
317;SDS011;146;53.448;10.228;2022-09-21T13:15:49;3.13;;;1.47;;
317;SDS011;146;53.448;10.228;2022-09-21T13:18:18;2.63;;;2.40;;
317;SDS011;146;53.448;10.228;2022-09-21T13:20:48;1.37;;;1.30;;
317;SDS011;146;53.448;10.228;2022-09-21T13:23:19;1.17;;;1.03;;
317;SDS011;146;53.448;10.228;2022-09-21T13:25:49;1.23;;;1.07;;
317;SDS011;146;53.448;10.228;2022-09-21T13:28:38;1.37;;;1.27;;
317;SDS011;146;53.448;10.228;2022-09-21T13:34:20;1.10;;;1.00;;
317;SDS011;146;53.448;10.228;2022-09-21T13:49:15;1.00;;;1.00;;
317;SDS011;146;53.448;10.228;2022-09-21T13:51:54;1.77;;;1.30;;
317;SDS011;146;53.448;10.228;2022-09-21T13:54:25;1.10;;;1.07;;
317;SDS011;146;53.448;10.228;2022-09-21T13:56:56;1.00;;;1.00;;
317;SDS011;146;53.448;10.228;2022-09-21T13:59:29;1.37;;;1.27;;
317;SDS011;146;53.448;10.228;2022-09-21T14:01:59;1.40;;;1.30;;
317;SDS011;146;53.448;10.228;2022-09-21T14:04:27;1.57;;;1.47;;
317;SDS011;146;53.448;10.228;2022-09-21T14:07:01;1.40;;;1.10;;
317;SDS011;146;53.448;10.228;2022-09-21T14:09:32;1.93;;;1.53;;
317;SDS011;146;53.448;10.228;2022-09-21T14:12:05;1.37;;;1.27;;
317;SDS011;146;53.448;10.228;2022-09-21T14:14:36;1.90;;;1.70;;
317;SDS011;146;53.448;10.228;2022-09-21T14:17:32;1.60;;;1.50;;
317;SDS011;146;53.448;10.228;2022-09-21T14:20:01;1.30;;;1.20;;
317;SDS011;146;53.448;10.228;2022-09-21T14:22:49;2.50;;;1.20;;
317;SDS011;146;53.448;10.228;2022-09-21T14:25:47;1.03;;;1.03;;
317;SDS011;146;53.448;10.228;2022-09-21T14:28:17;1.67;;;1.47;;
317;SDS011;146;53.448;10.228;2022-09-21T14:30:53;1.37;;;0.90;;
317;SDS011;146;53.448;10.228;2022-09-21T14:33:34;1.63;;;1.30;;
317;SDS011;146;53.448;10.228;2022-09-21T14:36:13;1.10;;;1.00;;
317;SDS011;146;53.448;10.228;2022-09-21T14:38:44;2.20;;;0.83;;
317;SDS011;146;53.448;10.228;2022-09-21T14:41:15;1.30;;;0.90;;
317;SDS011;146;53.448;10.228;2022-09-21T14:43:47;1.20;;;0.87;;
317;SDS011;146;53.448;10.228;2022-09-21T14:46:23;0.80;;;0.80;;
317;SDS011;146;53.448;10.228;2022-09-21T14:49:07;0.80;;;0.80;;
317;SDS011;146;53.448;10.228;2022-09-21T14:51:50;1.13;;;1.03;;
317;SDS011;146;53.448;10.228;2022-09-21T14:54:32;1.50;;;0.80;;
317;SDS011;146;53.448;10.228;2022-09-21T14:57:08;1.37;;;1.20;;
317;SDS011;146;53.448;10.228;2022-09-21T14:59:47;2.00;;;1.00;;
317;SDS011;146;53.448;10.228;2022-09-21T15:02:25;1.00;;;1.00;;
317;SDS011;146;53.448;10.228;2022-09-21T15:04:58;1.30;;;1.17;;
317;SDS011;146;53.448;10.228;2022-09-21T15:07:35;3.83;;;1.47;;
317;SDS011;146;53.448;10.228;2022-09-21T15:10:24;1.07;;;1.07;;
317;SDS011;146;53.448;10.228;2022-09-21T15:13:17;2.40;;;1.37;;
317;SDS011;146;53.448;10.228;2022-09-21T15:15:57;1.10;;;1.10;;
317;SDS011;146;53.448;10.228;2022-09-21T15:18:33;0.90;;;0.90;;
317;SDS011;146;53.448;10.228;2022-09-21T15:21:15;1.00;;;1.00;;
317;SDS011;146;53.448;10.228;2022-09-21T15:23:47;1.40;;;0.87;;
317;SDS011;146;53.448;10.228;2022-09-21T15:26:17;1.30;;;1.20;;
317;SDS011;146;53.448;10.228;2022-09-21T15:28:48;1.17;;;0.90;;
317;SDS011;146;53.448;10.228;2022-09-21T15:31:18;1.67;;;1.10;;
317;SDS011;146;53.448;10.228;2022-09-21T15:33:45;1.00;;;0.90;;
317;SDS011;146;53.448;10.228;2022-09-21T15:36:18;0.90;;;0.90;;
317;SDS011;146;53.448;10.228;2022-09-21T15:38:48;1.43;;;1.33;;
317;SDS011;146;53.448;10.228;2022-09-21T15:44:18;1.43;;;1.33;;
317;SDS011;146;53.448;10.228;2022-09-21T15:46:49;1.00;;;1.00;;
317;SDS011;146;53.448;10.228;2022-09-21T15:49:19;3.43;;;1.10;;
317;SDS011;146;53.448;10.228;2022-09-21T15:51:47;2.40;;;1.17;;
317;SDS011;146;53.448;10.228;2022-09-21T15:54:22;1.30;;;1.27;;
317;SDS011;146;53.448;10.228;2022-09-21T15:56:54;1.10;;;1.00;;
317;SDS011;146;53.448;10.228;2022-09-21T15:59:21;2.60;;;1.03;;
317;SDS011;146;53.448;10.228;2022-09-21T16:01:49;2.13;;;1.10;;
317;SDS011;146;53.448;10.228;2022-09-21T16:04:18;1.37;;;0.90;;
317;SDS011;146;53.448;10.228;2022-09-21T16:06:47;1.63;;;1.53;;
317;SDS011;146;53.448;10.228;2022-09-21T16:15:04;1.10;;;1.00;;
317;SDS011;146;53.448;10.228;2022-09-21T16:17:36;1.10;;;0.93;;
317;SDS011;146;53.448;10.228;2022-09-21T16:23:03;1.33;;;1.10;;
317;SDS011;146;53.448;10.228;2022-09-21T16:25:36;1.30;;;1.20;;
317;SDS011;146;53.448;10.228;2022-09-21T16:28:03;3.53;;;1.20;;
317;SDS011;146;53.448;10.228;2022-09-21T16:30:39;0.93;;;0.90;;
317;SDS011;146;53.448;10.228;2022-09-21T16:39:10;1.07;;;0.97;;
317;SDS011;146;53.448;10.228;2022-09-21T16:41:40;1.13;;;1.03;;
317;SDS011;146;53.448;10.228;2022-09-21T16:44:19;1.40;;;0.97;;
317;SDS011;146;53.448;10.228;2022-09-21T16:46:50;0.80;;;0.80;;
317;SDS011;146;53.448;10.228;2022-09-21T16:49:19;0.90;;;0.90;;
317;SDS011;146;53.448;10.228;2022-09-21T16:51:47;1.17;;;1.07;;
317;SDS011;146;53.448;10.228;2022-09-21T16:54:15;1.23;;;1.13;;
317;SDS011;146;53.448;10.228;2022-09-21T16:56:45;1.30;;;1.20;;
317;SDS011;146;53.448;10.228;2022-09-21T16:59:12;0.90;;;0.90;;